Holyoke, Minnesota
Current Conditions -  °F | °C
As of 3:36 PM on Wednesday 17 Dec 2014 (Local Time) from KCOQ Reporting Station
Light Snow Light Snow  
Wind Chill: 18°   Ceiling: 1800
Heat Index: 18°   Visibility: 7mi
Dew Point: 12°   Wind: 3mph
Humidity: 79%   Direction: 340°NNW
Pressure: 30.26"   Gusts: NA
Location:  46.47°N, 92.39°W
Report Text: KCOQ 172136Z AUTO 34003KT 7SM -SN OVC018 M08/M11 A3026 RMK AO2
Loading
Personal Weather Stations






























Interactive Weather Map New forecast layout! Learn more

10-Day Weather Forecast

Advertisements
Track Severe Weather on mobile